createdAt,value
2023-04-09T00:01:51.329Z,84.83
2023-04-09T00:04:19.498Z,85.58
2023-04-09T00:06:47.857Z,86.45
2023-04-09T00:09:16.263Z,87.03
2023-04-09T00:11:44.614Z,88.40
2023-04-09T00:14:13.988Z,88.82
2023-04-09T00:16:43.982Z,88.92
2023-04-09T00:19:13.019Z,89.71
2023-04-09T00:21:41.373Z,90.87
2023-04-09T00:24:09.755Z,90.67
2023-04-09T00:26:40.408Z,91.87
2023-04-09T00:29:09.685Z,91.75
2023-04-09T00:31:39.716Z,90.85
2023-04-09T00:34:07.686Z,92.18
2023-04-09T00:36:35.795Z,92.09
2023-04-09T00:39:05.998Z,90.17
2023-04-09T00:41:34.600Z,91.45
2023-04-09T00:44:05.657Z,90.10
2023-04-09T00:46:35.138Z,88.96
2023-04-09T00:49:05.755Z,88.77
2023-04-09T00:51:34.722Z,89.02
2023-04-09T00:54:02.896Z,88.79
2023-04-09T00:56:31.528Z,88.18
2023-04-09T00:59:00.268Z,88.90
2023-04-09T01:01:28.328Z,89.08
2023-04-09T01:03:56.745Z,88.57
2023-04-09T01:06:34.016Z,87.90
2023-04-09T01:09:07.150Z,87.62
2023-04-09T01:11:43.714Z,89.02
2023-04-09T01:14:21.273Z,89.26
2023-04-09T01:16:57.093Z,88.72
2023-04-09T01:19:42.588Z,89.54
2023-04-09T01:22:24.453Z,87.97
2023-04-09T01:25:10.821Z,87.66
2023-04-09T01:27:48.615Z,87.76
2023-04-09T01:30:20.524Z,89.55
2023-04-09T01:32:49.366Z,89.37
2023-04-09T01:35:17.867Z,88.56
2023-04-09T01:37:46.128Z,88.42
2023-04-09T01:40:14.622Z,88.29
2023-04-09T01:42:42.964Z,88.43
2023-04-09T01:45:13.434Z,87.76
2023-04-09T01:47:43.258Z,87.45
2023-04-09T01:50:12.206Z,88.08
2023-04-09T01:52:40.489Z,88.30
2023-04-09T01:55:09.672Z,87.15
2023-04-09T01:57:37.860Z,87.69
2023-04-09T02:00:09.642Z,88.25
2023-04-09T02:02:43.940Z,87.39
2023-04-09T02:05:19.555Z,87.86
2023-04-09T02:07:49.862Z,88.18
2023-04-09T02:10:21.736Z,88.15
2023-04-09T02:12:52.769Z,88.12
2023-04-09T02:15:22.831Z,87.65
2023-04-09T02:17:51.489Z,86.64
2023-04-09T02:20:22.067Z,88.53
2023-04-09T02:22:50.326Z,88.72
2023-04-09T02:25:18.393Z,87.62
2023-04-09T02:27:46.495Z,87.04
2023-04-09T02:30:14.647Z,86.81
2023-04-09T02:32:42.826Z,87.61
2023-04-09T02:35:11.726Z,86.86
2023-04-09T02:37:41.566Z,87.60
2023-04-09T02:40:11.114Z,87.18
2023-04-09T02:42:39.147Z,86.98
2023-04-09T02:45:08.599Z,87.17
2023-04-09T02:47:36.698Z,86.99
2023-04-09T02:50:05.065Z,86.74
2023-04-09T02:52:33.147Z,88.06
2023-04-09T02:55:02.550Z,87.61
2023-04-09T02:57:30.617Z,88.77
2023-04-09T02:59:58.659Z,88.57
2023-04-09T03:02:26.828Z,89.52
2023-04-09T03:04:54.972Z,89.65
2023-04-09T03:07:23.904Z,90.07
2023-04-09T03:09:51.869Z,90.65
2023-04-09T03:12:21.366Z,90.05
2023-04-09T03:14:49.585Z,90.38
2023-04-09T03:17:17.544Z,90.68
2023-04-09T03:19:45.762Z,89.97
2023-04-09T03:22:13.904Z,89.34
2023-04-09T03:24:41.887Z,89.55
2023-04-09T03:27:09.917Z,88.66
2023-04-09T03:29:39.610Z,87.56
2023-04-09T03:32:07.806Z,89.78
2023-04-09T03:34:35.901Z,90.17
2023-04-09T03:37:03.945Z,89.94
2023-04-09T03:39:32.109Z,89.50
2023-04-09T03:42:01.924Z,87.65
2023-04-09T03:44:30.366Z,88.50
2023-04-09T03:46:59.937Z,88.27
2023-04-09T03:49:28.002Z,88.18
2023-04-09T03:51:56.121Z,87.23
2023-04-09T03:54:24.125Z,87.31
2023-04-09T03:56:52.182Z,87.38
2023-04-09T03:59:20.368Z,86.98
2023-04-09T04:01:48.449Z,87.82
2023-04-09T04:04:19.386Z,89.65
2023-04-09T04:06:48.579Z,89.67
2023-04-09T04:09:16.997Z,89.15
2023-04-09T04:11:45.157Z,88.91
2023-04-09T04:14:13.318Z,88.60
2023-04-09T04:16:42.427Z,89.61
2023-04-09T04:19:10.990Z,89.18
2023-04-09T04:21:40.320Z,87.94
2023-04-09T04:24:08.433Z,87.53
2023-04-09T04:26:36.818Z,87.69
2023-04-09T04:29:04.901Z,87.94
2023-04-09T04:31:33.054Z,88.26
2023-04-09T04:34:01.149Z,87.89
2023-04-09T04:36:29.225Z,88.31
2023-04-09T04:38:58.601Z,88.11
2023-04-09T04:41:26.950Z,89.28
2023-04-09T04:43:55.029Z,89.07
2023-04-09T04:46:23.200Z,88.32
2023-04-09T04:48:51.559Z,89.18
2023-04-09T04:51:19.779Z,90.08
2023-04-09T04:53:48.059Z,89.42
2023-04-09T04:56:17.888Z,89.93
2023-04-09T04:58:47.463Z,89.44
2023-04-09T05:01:19.006Z,89.45
2023-04-09T05:03:47.353Z,88.14
2023-04-09T05:06:15.516Z,88.33
2023-04-09T05:08:43.580Z,87.36
2023-04-09T05:11:22.317Z,86.14
2023-04-09T05:13:50.380Z,88.25
2023-04-09T05:16:18.963Z,87.99
2023-04-09T05:18:47.526Z,87.37
2023-04-09T05:21:15.461Z,86.92
2023-04-09T05:23:44.022Z,87.13
2023-04-09T05:26:12.180Z,86.33
2023-04-09T05:28:41.638Z,85.34
2023-04-09T05:31:13.371Z,85.22
2023-04-09T05:33:42.102Z,84.87
2023-04-09T05:36:10.312Z,84.00
2023-04-09T05:38:38.247Z,83.86
2023-04-09T05:41:06.350Z,84.30
2023-04-09T05:43:34.397Z,84.37
2023-04-09T05:46:04.732Z,83.49
2023-04-09T05:48:32.970Z,84.04
2023-04-09T05:51:01.606Z,83.66
2023-04-09T05:53:29.666Z,84.12
2023-04-09T05:55:57.628Z,84.05
2023-04-09T05:58:25.609Z,84.53
2023-04-09T06:00:53.681Z,85.00
2023-04-09T06:03:23.066Z,85.12
2023-04-09T06:05:51.216Z,84.97
2023-04-09T06:08:19.730Z,84.38
2023-04-09T06:10:47.988Z,85.17
2023-04-09T06:13:16.183Z,84.88
2023-04-09T06:15:44.314Z,85.94
2023-04-09T06:18:12.280Z,85.49
2023-04-09T06:20:41.715Z,84.93
2023-04-09T06:23:09.688Z,84.50
2023-04-09T06:25:37.744Z,85.04
2023-04-09T06:28:06.077Z,87.13
2023-04-09T06:30:35.940Z,86.53
2023-04-09T06:33:04.435Z,86.41
2023-04-09T06:35:32.682Z,86.06
2023-04-09T06:38:02.704Z,85.96
2023-04-09T06:40:31.324Z,85.11
2023-04-09T06:42:59.285Z,84.35
2023-04-09T06:45:27.652Z,84.10
2023-04-09T06:47:56.975Z,84.84
2023-04-09T06:50:25.005Z,84.29
2023-04-09T06:52:53.717Z,83.72
2023-04-09T06:55:23.106Z,83.03
2023-04-09T06:57:51.031Z,82.11
2023-04-09T07:00:19.425Z,83.43
2023-04-09T07:02:47.678Z,82.84
2023-04-09T07:05:15.722Z,83.77
2023-04-09T07:07:44.125Z,84.07
2023-04-09T07:10:12.413Z,84.29
2023-04-09T07:12:41.846Z,81.79
2023-04-09T07:15:10.361Z,83.43
2023-04-09T07:17:38.584Z,83.54
2023-04-09T07:20:07.562Z,84.38
2023-04-09T07:22:36.303Z,82.95
2023-04-09T07:25:04.264Z,82.61
2023-04-09T07:27:32.575Z,82.43
2023-04-09T07:30:03.268Z,82.05
2023-04-09T07:32:31.588Z,81.87
2023-04-09T07:34:59.771Z,81.54
2023-04-09T07:37:28.202Z,81.54
2023-04-09T07:39:56.620Z,81.07
2023-04-09T07:42:24.862Z,81.65
2023-04-09T07:44:52.829Z,79.72
2023-04-09T07:47:23.196Z,81.25
2023-04-09T07:49:51.442Z,81.01
2023-04-09T07:52:20.258Z,80.37
2023-04-09T07:54:48.274Z,79.75
2023-04-09T07:57:16.463Z,79.71
2023-04-09T07:59:44.685Z,77.43
2023-04-09T08:02:15.032Z,78.82
2023-04-09T08:04:45.035Z,78.15
2023-04-09T08:07:14.972Z,76.38
2023-04-09T08:09:43.025Z,76.94
2023-04-09T08:12:11.157Z,76.33
2023-04-09T08:14:39.086Z,75.30
2023-04-09T08:17:07.082Z,76.15
2023-04-09T08:19:35.104Z,75.10
2023-04-09T08:22:04.431Z,76.25
2023-04-09T08:24:32.513Z,76.75
2023-04-09T08:27:02.329Z,77.74
2023-04-09T08:29:32.376Z,76.96
2023-04-09T08:32:00.414Z,77.36
2023-04-09T08:34:28.728Z,75.48
2023-04-09T08:36:56.981Z,74.63
2023-04-09T08:39:26.391Z,72.79
2023-04-09T08:41:57.140Z,73.02
2023-04-09T08:44:27.998Z,71.57
2023-04-09T08:46:59.567Z,71.93
2023-04-09T08:49:27.601Z,71.16
2023-04-09T08:51:59.414Z,70.66
2023-04-09T08:54:29.268Z,70.75
2023-04-09T08:56:58.963Z,69.92
2023-04-09T08:59:27.468Z,70.63
2023-04-09T09:02:09.009Z,69.08
2023-04-09T09:04:48.538Z,70.54
2023-04-09T09:07:17.807Z,72.02
2023-04-09T09:09:56.220Z,71.59
2023-04-09T09:12:34.775Z,69.40
2023-04-09T09:15:03.155Z,69.65
2023-04-09T09:17:31.285Z,69.11
2023-04-09T09:19:59.623Z,69.10
2023-04-09T09:22:27.588Z,69.87
2023-04-09T09:24:58.474Z,68.90
2023-04-09T09:27:33.710Z,68.64
2023-04-09T09:30:03.469Z,68.23
2023-04-09T09:32:31.541Z,68.17
2023-04-09T09:35:02.549Z,66.37
2023-04-09T09:37:32.151Z,66.86
2023-04-09T09:40:02.049Z,66.42
2023-04-09T09:42:30.409Z,65.12
2023-04-09T09:44:59.885Z,68.77
2023-04-09T09:47:29.537Z,67.69
2023-04-09T09:49:57.573Z,68.34
2023-04-09T09:52:27.147Z,69.59
2023-04-09T09:54:56.832Z,68.38
2023-04-09T09:57:29.386Z,69.74
2023-04-09T10:00:02.606Z,69.35
2023-04-09T10:02:38.681Z,69.22
2023-04-09T10:05:09.483Z,68.37
2023-04-09T10:07:38.626Z,68.07
2023-04-09T10:10:08.600Z,67.24
2023-04-09T10:12:38.491Z,67.33
2023-04-09T10:15:07.315Z,66.50
2023-04-09T10:17:35.652Z,65.70
2023-04-09T10:20:17.153Z,64.83
2023-04-09T10:22:48.905Z,65.76
2023-04-09T10:25:17.724Z,65.34
2023-04-09T10:27:49.309Z,65.26
2023-04-09T10:30:35.439Z,64.11
2023-04-09T10:33:15.047Z,64.07
2023-04-09T10:35:47.930Z,64.47
2023-04-09T10:38:18.582Z,63.30
2023-04-09T10:40:51.025Z,63.83
2023-04-09T10:43:23.701Z,65.18
2023-04-09T10:45:55.279Z,64.27
2023-04-09T10:48:26.303Z,64.06
2023-04-09T10:50:54.595Z,64.93
2023-04-09T10:53:24.976Z,64.92
2023-04-09T10:55:54.979Z,64.35
2023-04-09T10:58:24.335Z,64.75
2023-04-09T11:00:52.969Z,65.11
2023-04-09T11:03:27.664Z,63.97
2023-04-09T11:06:03.860Z,63.49
2023-04-09T11:08:33.952Z,65.14
2023-04-09T11:11:03.635Z,64.90
2023-04-09T11:13:34.380Z,63.74
2023-04-09T11:16:04.225Z,63.27
2023-04-09T11:18:34.737Z,62.71
2023-04-09T11:21:04.806Z,61.56
2023-04-09T11:23:33.323Z,61.01
2023-04-09T11:26:02.182Z,61.39
2023-04-09T11:28:30.323Z,60.58
2023-04-09T11:30:59.794Z,59.01
2023-04-09T11:33:34.559Z,57.43
2023-04-09T11:36:05.793Z,57.27
2023-04-09T11:38:34.431Z,56.58
2023-04-09T11:41:03.367Z,57.25
2023-04-09T11:43:32.399Z,56.08
2023-04-09T11:46:02.332Z,57.77
2023-04-09T11:48:31.940Z,57.28
2023-04-09T11:51:00.314Z,56.28
2023-04-09T11:53:35.286Z,55.84
2023-04-09T11:56:03.421Z,56.84
2023-04-09T11:58:32.296Z,56.51
2023-04-09T12:01:01.752Z,57.58
2023-04-09T12:03:33.873Z,58.57
2023-04-09T12:06:04.027Z,59.01
2023-04-09T12:08:34.739Z,59.31
2023-04-09T12:11:10.575Z,59.75
2023-04-09T12:13:43.081Z,59.40
2023-04-09T12:16:13.195Z,59.95
2023-04-09T12:18:41.917Z,61.41
2023-04-09T12:21:10.297Z,60.01
2023-04-09T12:23:38.422Z,60.33
2023-04-09T12:26:06.511Z,58.51
2023-04-09T12:28:34.605Z,58.40
2023-04-09T12:31:03.620Z,58.56
2023-04-09T12:33:34.106Z,59.01
2023-04-09T12:36:03.441Z,59.31
2023-04-09T12:38:32.255Z,59.23
2023-04-09T12:41:01.416Z,57.98
2023-04-09T12:43:29.641Z,57.23
2023-04-09T12:45:58.072Z,57.80
2023-04-09T12:48:26.558Z,56.40
2023-04-09T12:50:55.969Z,55.94
2023-04-09T12:53:23.978Z,55.43
2023-04-09T12:55:51.976Z,56.04
2023-04-09T12:58:19.887Z,55.34
2023-04-09T13:00:47.759Z,55.27
2023-04-09T13:03:16.844Z,55.26
2023-04-09T13:05:45.250Z,55.75
2023-04-09T13:08:14.544Z,55.85
2023-04-09T13:10:42.589Z,55.96
2023-04-09T13:13:13.001Z,55.75
2023-04-09T13:15:43.336Z,55.28
2023-04-09T13:18:11.404Z,54.61
2023-04-09T13:20:39.447Z,54.81
2023-04-09T13:23:07.666Z,54.86
2023-04-09T13:25:37.161Z,54.93
2023-04-09T13:28:05.245Z,54.66
2023-04-09T13:30:33.435Z,54.88
2023-04-09T13:33:01.530Z,54.80
2023-04-09T13:35:29.624Z,55.65
2023-04-09T13:37:58.845Z,54.84
2023-04-09T13:40:26.845Z,54.48
2023-04-09T13:42:56.173Z,53.36
2023-04-09T13:45:24.552Z,54.33
2023-04-09T13:47:52.639Z,54.35
2023-04-09T13:50:21.662Z,54.66
2023-04-09T13:52:49.668Z,55.05
2023-04-09T13:55:17.653Z,54.57
2023-04-09T13:57:45.880Z,54.56
2023-04-09T14:00:15.812Z,54.27
2023-04-09T14:02:44.018Z,54.51
2023-04-09T14:05:12.591Z,53.37
2023-04-09T14:07:40.577Z,53.48
2023-04-09T14:10:09.675Z,53.33
2023-04-09T14:12:37.652Z,53.94
2023-04-09T14:15:06.485Z,53.66
2023-04-09T14:17:35.764Z,53.41
2023-04-09T14:20:04.700Z,53.20
2023-04-09T14:22:32.676Z,54.03
2023-04-09T14:25:00.776Z,53.63
2023-04-09T14:27:28.791Z,52.41
2023-04-09T14:29:56.834Z,52.58
2023-04-09T14:32:24.824Z,53.16
2023-04-09T14:34:54.190Z,52.53
2023-04-09T14:37:22.466Z,51.89
2023-04-09T14:39:50.502Z,52.43
2023-04-09T14:42:19.099Z,52.36
2023-04-09T14:44:47.161Z,51.65
2023-04-09T14:47:15.121Z,51.82
2023-04-09T14:49:43.128Z,52.58
2023-04-09T14:52:12.524Z,52.02
2023-04-09T14:54:40.699Z,52.67
2023-04-09T14:57:08.617Z,52.98
2023-04-09T14:59:38.313Z,53.14
2023-04-09T15:02:06.732Z,52.81
2023-04-09T15:04:35.026Z,51.92
2023-04-09T15:07:03.240Z,51.83
2023-04-09T15:09:32.822Z,52.53
2023-04-09T15:12:01.506Z,52.72
2023-04-09T15:14:30.646Z,53.60
2023-04-09T15:16:58.561Z,53.67
2023-04-09T15:19:26.693Z,53.67
2023-04-09T15:21:54.608Z,54.15
2023-04-09T15:24:22.788Z,53.66
2023-04-09T15:26:52.165Z,53.44
2023-04-09T15:29:20.102Z,52.24
2023-04-09T15:31:49.089Z,52.30
2023-04-09T15:34:17.220Z,52.19
2023-04-09T15:36:46.291Z,52.06
2023-04-09T15:39:14.306Z,51.52
2023-04-09T15:41:42.332Z,51.58
2023-04-09T15:44:12.268Z,51.47
2023-04-09T15:46:40.260Z,51.92
2023-04-09T15:49:08.851Z,51.39
2023-04-09T15:51:36.882Z,51.54
2023-04-09T15:54:05.590Z,50.94
2023-04-09T15:56:35.988Z,51.01
2023-04-09T15:59:05.475Z,50.04
2023-04-09T16:01:35.243Z,49.73
2023-04-09T16:04:04.791Z,49.85
2023-04-09T16:06:33.178Z,50.31
2023-04-09T16:09:01.133Z,50.67
2023-04-09T16:11:29.196Z,50.59
2023-04-09T16:13:59.330Z,51.58
2023-04-09T16:16:27.546Z,52.71
2023-04-09T16:18:57.564Z,53.08
2023-04-09T16:21:25.910Z,53.95
2023-04-09T16:23:53.836Z,54.33
2023-04-09T16:26:21.883Z,54.72
2023-04-09T16:28:50.280Z,54.70
2023-04-09T16:31:18.604Z,55.57
2023-04-09T16:33:46.658Z,56.35
2023-04-09T16:36:16.549Z,56.85
2023-04-09T16:38:44.576Z,57.70
2023-04-09T16:41:12.493Z,58.30
2023-04-09T16:43:40.414Z,58.65
2023-04-09T16:46:08.433Z,58.63
2023-04-09T16:48:41.571Z,58.98
2023-04-09T16:51:09.636Z,59.29
2023-04-09T16:53:40.112Z,59.34
2023-04-09T16:56:09.336Z,59.83
2023-04-09T16:58:37.853Z,60.37
2023-04-09T17:01:06.620Z,60.86
2023-04-09T17:03:34.878Z,60.73
2023-04-09T17:06:04.455Z,60.70
2023-04-09T17:08:32.414Z,61.21
2023-04-09T17:11:03.211Z,61.02
2023-04-09T17:13:35.143Z,61.37
2023-04-09T17:16:03.751Z,61.78
2023-04-09T17:18:31.790Z,62.54
2023-04-09T17:21:00.021Z,62.33
2023-04-09T17:23:30.407Z,62.61
2023-04-09T17:25:58.285Z,63.17
2023-04-09T17:28:29.782Z,63.04
2023-04-09T17:30:57.854Z,63.30
2023-04-09T17:33:26.136Z,63.58
2023-04-09T17:35:54.080Z,63.44
2023-04-09T17:38:24.902Z,63.59
2023-04-09T17:40:54.611Z,63.65
2023-04-09T17:43:22.805Z,63.87
2023-04-09T17:45:52.342Z,63.85
2023-04-09T17:48:20.217Z,63.89
2023-04-09T17:50:48.568Z,64.29
2023-04-09T17:53:16.635Z,64.33
2023-04-09T17:55:48.646Z,64.78
2023-04-09T17:58:16.841Z,64.87
2023-04-09T18:00:44.709Z,65.84
2023-04-09T18:03:14.594Z,65.97
2023-04-09T18:05:43.215Z,66.17
2023-04-09T18:08:11.485Z,66.38
2023-04-09T18:10:39.374Z,66.88
2023-04-09T18:13:07.394Z,66.56
2023-04-09T18:15:35.537Z,66.96
2023-04-09T18:18:03.548Z,67.71
2023-04-09T18:20:33.184Z,68.11
2023-04-09T18:23:01.085Z,68.73
2023-04-09T18:25:29.389Z,68.55
2023-04-09T18:27:58.004Z,68.84
2023-04-09T18:30:26.383Z,68.85
2023-04-09T18:32:54.351Z,68.79
2023-04-09T18:35:22.694Z,68.98
2023-04-09T18:37:51.971Z,68.95
2023-04-09T18:40:20.308Z,69.37
2023-04-09T18:42:51.776Z,69.85
2023-04-09T18:45:21.192Z,69.17
2023-04-09T18:47:49.265Z,69.32
2023-04-09T18:50:18.733Z,69.59
2023-04-09T18:52:46.642Z,70.48
2023-04-09T18:55:16.832Z,70.27
2023-04-09T18:57:45.281Z,70.58
2023-04-09T19:00:14.091Z,70.72
2023-04-09T19:02:42.856Z,70.81
2023-04-09T19:05:11.368Z,70.69
2023-04-09T19:07:39.511Z,70.79
2023-04-09T19:10:08.284Z,71.19
2023-04-09T19:12:38.458Z,72.04
2023-04-09T19:15:07.046Z,71.83
2023-04-09T19:17:34.971Z,72.20
2023-04-09T19:20:03.083Z,72.55
2023-04-09T19:22:31.152Z,72.58
2023-04-09T19:24:59.493Z,72.21
2023-04-09T19:27:28.217Z,72.87
2023-04-09T19:29:59.948Z,72.45
2023-04-09T19:32:28.797Z,73.19
2023-04-09T19:34:56.827Z,73.03
2023-04-09T19:37:28.313Z,73.13
2023-04-09T19:39:56.410Z,73.01
2023-04-09T19:42:24.678Z,73.10
2023-04-09T19:44:52.613Z,73.98
2023-04-09T19:47:22.265Z,73.73
2023-04-09T19:49:51.326Z,73.60
2023-04-09T19:52:19.862Z,73.37
2023-04-09T19:54:47.931Z,74.21
2023-04-09T19:57:16.560Z,74.46
2023-04-09T19:59:44.438Z,74.96
2023-04-09T20:02:12.696Z,75.04
2023-04-09T20:04:42.089Z,75.50
2023-04-09T20:07:10.127Z,75.93
2023-04-09T20:09:41.472Z,76.26
2023-04-09T20:12:09.914Z,75.55
2023-04-09T20:14:39.441Z,76.13
2023-04-09T20:17:09.040Z,76.06
2023-04-09T20:19:38.021Z,75.51
2023-04-09T20:22:07.614Z,76.04
2023-04-09T20:24:35.665Z,76.17
2023-04-09T20:27:03.916Z,76.13
2023-04-09T20:29:32.020Z,76.09
2023-04-09T20:32:00.219Z,76.77
2023-04-09T20:34:31.771Z,77.24
2023-04-09T20:37:00.436Z,77.00
2023-04-09T20:39:32.742Z,76.73
2023-04-09T20:42:00.675Z,76.82
2023-04-09T20:44:32.271Z,77.15
2023-04-09T20:47:00.239Z,77.48
2023-04-09T20:49:29.518Z,77.09
2023-04-09T20:51:57.414Z,77.70
2023-04-09T20:54:25.368Z,78.65
2023-04-09T20:56:55.183Z,78.18
2023-04-09T20:59:24.953Z,78.44
2023-04-09T21:01:53.955Z,78.59
2023-04-09T21:04:22.252Z,78.33
2023-04-09T21:06:50.518Z,78.91
2023-04-09T21:09:18.449Z,78.98
2023-04-09T21:11:46.376Z,79.04
2023-04-09T21:14:15.940Z,79.43
2023-04-09T21:16:44.038Z,79.58
2023-04-09T21:19:11.988Z,79.23
2023-04-09T21:21:39.985Z,79.48
2023-04-09T21:24:08.042Z,78.61
2023-04-09T21:26:49.510Z,79.27
2023-04-09T21:29:21.612Z,79.64
2023-04-09T21:31:50.211Z,79.46
2023-04-09T21:34:18.133Z,80.08
2023-04-09T21:36:46.473Z,80.56
2023-04-09T21:39:14.571Z,80.39
2023-04-09T21:41:42.546Z,80.46
2023-04-09T21:44:11.256Z,80.36
2023-04-09T21:46:41.826Z,80.01
2023-04-09T21:49:09.904Z,81.14
2023-04-09T21:51:37.911Z,81.03
2023-04-09T21:54:06.420Z,81.55
2023-04-09T21:56:35.536Z,81.74
2023-04-09T21:59:03.673Z,81.15
2023-04-09T22:01:34.807Z,81.63
2023-04-09T22:04:04.745Z,81.38
2023-04-09T22:06:33.003Z,81.45
2023-04-09T22:09:01.847Z,81.64
2023-04-09T22:11:31.084Z,82.30
2023-04-09T22:13:59.050Z,82.46
2023-04-09T22:16:28.144Z,82.91
2023-04-09T22:18:56.840Z,82.53
2023-04-09T22:21:26.834Z,82.82
2023-04-09T22:23:54.729Z,83.04
2023-04-09T22:26:22.792Z,82.80
2023-04-09T22:28:51.804Z,82.82
2023-04-09T22:31:21.128Z,83.32
2023-04-09T22:33:49.255Z,83.06
2023-04-09T22:36:17.168Z,83.98
2023-04-09T22:38:46.508Z,83.68
2023-04-09T22:41:16.059Z,84.37
2023-04-09T22:43:43.959Z,84.09
2023-04-09T22:46:11.951Z,83.80
2023-04-09T22:48:44.525Z,84.12
2023-04-09T22:51:13.018Z,84.37
2023-04-09T22:53:41.492Z,84.41
2023-04-09T22:56:11.148Z,84.30
2023-04-09T22:58:39.343Z,84.55
2023-04-09T23:01:07.912Z,84.99
2023-04-09T23:03:36.041Z,84.36
2023-04-09T23:06:04.216Z,83.85
2023-04-09T23:08:32.589Z,84.66
2023-04-09T23:11:01.193Z,84.22
2023-04-09T23:13:30.592Z,84.61
2023-04-09T23:15:58.575Z,84.54
2023-04-09T23:18:26.660Z,84.39
2023-04-09T23:20:54.829Z,83.97
2023-04-09T23:23:24.916Z,84.79
2023-04-09T23:25:53.172Z,84.73
2023-04-09T23:28:21.176Z,84.74
2023-04-09T23:30:51.431Z,83.66
2023-04-09T23:33:19.569Z,83.63
2023-04-09T23:35:48.924Z,83.82
2023-04-09T23:38:26.267Z,83.73
2023-04-09T23:41:00.484Z,83.85
2023-04-09T23:43:28.765Z,84.26
2023-04-09T23:45:58.263Z,84.34
2023-04-09T23:48:26.521Z,83.61
2023-04-09T23:50:55.873Z,83.55
2023-04-09T23:53:24.289Z,83.41
2023-04-09T23:55:52.760Z,83.29
2023-04-09T23:58:21.519Z,83.75
